createdAt,value
2018-09-22T00:02:04.643Z,3.93
2018-09-22T00:04:33.457Z,3.70
2018-09-22T00:07:02.336Z,3.60
2018-09-22T00:09:31.022Z,3.87
2018-09-22T00:11:59.757Z,4.00
2018-09-22T00:14:28.465Z,4.00
2018-09-22T00:16:57.272Z,3.93
2018-09-22T00:19:26.098Z,4.00
2018-09-22T00:21:54.917Z,4.70
2018-09-22T00:24:23.657Z,4.30
2018-09-22T00:26:52.409Z,3.83
2018-09-22T00:29:21.127Z,4.17
2018-09-22T00:31:49.796Z,3.87
2018-09-22T00:34:18.640Z,4.03
2018-09-22T00:36:47.368Z,4.20
2018-09-22T00:39:16.249Z,4.27
2018-09-22T00:41:45.131Z,4.30
2018-09-22T00:44:13.830Z,4.30
2018-09-22T00:46:42.613Z,3.80
2018-09-22T00:49:11.342Z,4.37
2018-09-22T00:51:39.997Z,4.00
2018-09-22T00:54:08.736Z,4.83
2018-09-22T00:56:37.444Z,5.40
2018-09-22T00:59:06.311Z,5.50
2018-09-22T01:01:34.981Z,5.40
2018-09-22T01:04:03.734Z,5.53
2018-09-22T01:06:39.092Z,5.73
2018-09-22T01:09:08.696Z,5.67
2018-09-22T01:11:37.907Z,5.30
2018-09-22T01:14:07.214Z,5.70
2018-09-22T01:16:36.099Z,5.87
2018-09-22T01:19:04.936Z,6.30
2018-09-22T01:21:33.833Z,5.13
2018-09-22T01:24:02.844Z,5.70
2018-09-22T01:26:31.841Z,4.97
2018-09-22T01:29:00.680Z,5.77
2018-09-22T01:31:29.513Z,5.53
2018-09-22T01:33:58.308Z,6.27
2018-09-22T01:36:27.097Z,6.33
2018-09-22T01:38:55.744Z,6.10
2018-09-22T01:41:24.473Z,6.57
2018-09-22T01:43:53.156Z,6.27
2018-09-22T01:46:21.962Z,6.10
2018-09-22T01:48:50.772Z,6.57
2018-09-22T01:51:19.494Z,5.90
2018-09-22T01:53:48.280Z,5.63
2018-09-22T01:56:16.946Z,6.40
2018-09-22T01:58:45.711Z,6.27
2018-09-22T02:01:14.464Z,5.60
2018-09-22T02:03:43.281Z,6.43
2018-09-22T02:06:12.128Z,6.23
2018-09-22T02:08:40.888Z,6.63
2018-09-22T02:11:09.610Z,5.97
2018-09-22T02:13:38.524Z,6.50
2018-09-22T02:16:07.356Z,6.87
2018-09-22T02:18:36.144Z,6.00
2018-09-22T02:21:05.270Z,6.30
2018-09-22T02:23:34.026Z,5.93
2018-09-22T02:26:02.713Z,5.63
2018-09-22T02:28:31.529Z,6.30
2018-09-22T02:31:00.349Z,5.77
2018-09-22T02:33:29.220Z,5.67
2018-09-22T02:35:57.990Z,5.80
2018-09-22T02:38:26.702Z,5.43
2018-09-22T02:40:55.387Z,5.63
2018-09-22T02:43:24.198Z,5.90
2018-09-22T02:45:52.913Z,5.90
2018-09-22T02:48:21.631Z,6.07
2018-09-22T02:50:50.420Z,5.97
2018-09-22T02:53:19.087Z,6.10
2018-09-22T02:55:47.775Z,5.77
2018-09-22T02:58:16.581Z,5.70
2018-09-22T03:00:45.266Z,6.37
2018-09-22T03:03:13.939Z,6.03
2018-09-22T03:05:42.619Z,6.57
2018-09-22T03:08:11.436Z,5.73
2018-09-22T03:10:40.119Z,6.03
2018-09-22T03:13:08.825Z,5.97
2018-09-22T03:15:37.607Z,6.40
2018-09-22T03:18:06.329Z,6.00
2018-09-22T03:20:35.168Z,5.83
2018-09-22T03:23:03.916Z,6.63
2018-09-22T03:25:32.683Z,6.60
2018-09-22T03:28:01.473Z,6.93
2018-09-22T03:30:30.221Z,6.53
2018-09-22T03:32:58.972Z,6.73
2018-09-22T03:35:27.684Z,7.40
2018-09-22T03:37:56.443Z,7.63
2018-09-22T03:40:25.141Z,7.00
2018-09-22T03:42:53.926Z,6.63
2018-09-22T03:45:22.693Z,6.70
2018-09-22T03:47:51.461Z,6.67
2018-09-22T03:50:20.132Z,6.93
2018-09-22T03:52:48.799Z,7.23
2018-09-22T03:55:17.587Z,7.03
2018-09-22T03:57:46.282Z,6.97
2018-09-22T04:00:14.990Z,7.77
2018-09-22T04:02:43.735Z,6.73
2018-09-22T04:05:12.410Z,7.37
2018-09-22T04:07:41.124Z,7.40
2018-09-22T04:10:09.880Z,7.80
2018-09-22T04:12:38.552Z,8.37
2018-09-22T04:15:07.368Z,7.70
2018-09-22T04:17:36.065Z,6.83
2018-09-22T04:20:04.851Z,8.40
2018-09-22T04:22:33.603Z,8.90
2018-09-22T04:25:02.354Z,7.73
2018-09-22T04:27:31.037Z,7.40
2018-09-22T04:29:59.683Z,7.60
2018-09-22T04:32:28.430Z,8.23
2018-09-22T04:34:57.136Z,7.70
2018-09-22T04:37:25.752Z,7.00
2018-09-22T04:39:54.487Z,7.57
2018-09-22T04:42:23.220Z,7.30
2018-09-22T04:45:06.614Z,7.60
2018-09-22T04:47:35.239Z,8.33
2018-09-22T04:50:04.037Z,8.23
2018-09-22T04:52:32.695Z,8.30
2018-09-22T04:55:01.492Z,7.67
2018-09-22T04:57:31.118Z,7.47
2018-09-22T04:59:59.775Z,8.13
2018-09-22T05:02:28.395Z,7.50
2018-09-22T05:04:57.057Z,7.90
2018-09-22T05:07:25.751Z,6.77
2018-09-22T05:09:54.508Z,7.73
2018-09-22T05:12:23.276Z,7.47
2018-09-22T05:14:51.936Z,8.07
2018-09-22T05:17:20.656Z,8.40
2018-09-22T05:19:49.496Z,9.00
2018-09-22T05:22:18.205Z,9.17
2018-09-22T05:24:47.021Z,8.90
2018-09-22T05:27:15.775Z,9.53
2018-09-22T05:29:44.521Z,9.33
2018-09-22T05:32:13.290Z,8.53
2018-09-22T05:34:42.166Z,9.00
2018-09-22T05:37:10.923Z,9.70
2018-09-22T05:39:39.631Z,9.60
2018-09-22T05:42:08.502Z,9.97
2018-09-22T05:44:37.190Z,9.37
2018-09-22T05:47:06.078Z,9.47
2018-09-22T05:49:34.755Z,8.97
2018-09-22T05:52:03.514Z,9.83
2018-09-22T05:54:32.216Z,10.50
2018-09-22T05:57:01.089Z,11.23
2018-09-22T05:59:29.740Z,10.80
2018-09-22T06:01:58.495Z,10.50
2018-09-22T06:04:27.183Z,9.63
2018-09-22T06:06:55.978Z,8.20
2018-09-22T06:09:24.694Z,8.27
2018-09-22T06:11:53.428Z,9.08
2018-09-22T06:14:22.098Z,8.60
2018-09-22T06:16:50.853Z,8.23
2018-09-22T06:19:19.537Z,8.55
2018-09-22T06:21:48.305Z,9.08
2018-09-22T06:24:17.020Z,8.95
2018-09-22T06:26:45.807Z,9.38
2018-09-22T06:29:14.543Z,8.28
2018-09-22T06:31:43.577Z,9.30
2018-09-22T06:34:12.261Z,9.18
2018-09-22T06:36:41.617Z,9.55
2018-09-22T06:39:11.251Z,9.75
2018-09-22T06:41:40.044Z,8.70
2018-09-22T06:44:09.142Z,8.73
2018-09-22T06:46:38.505Z,9.23
2018-09-22T06:49:08.076Z,9.60
2018-09-22T06:51:36.887Z,9.33
2018-09-22T06:54:06.032Z,10.10
2018-09-22T06:56:34.787Z,9.38
2018-09-22T06:59:03.564Z,9.90
2018-09-22T07:01:32.310Z,9.75
2018-09-22T07:04:01.177Z,11.15
2018-09-22T07:06:30.080Z,10.23
2018-09-22T07:08:58.965Z,12.80
2018-09-22T07:11:28.252Z,10.03
2018-09-22T07:13:57.216Z,9.98
2018-09-22T07:16:26.036Z,9.90
2018-09-22T07:18:54.841Z,9.43
2018-09-22T07:21:28.893Z,9.25
2018-09-22T07:23:57.721Z,11.43
2018-09-22T07:26:26.557Z,10.90
2018-09-22T07:28:55.361Z,10.72
2018-09-22T07:31:24.233Z,10.32
2018-09-22T07:33:53.183Z,10.30
2018-09-22T07:36:22.007Z,10.13
2018-09-22T07:38:50.877Z,10.90
2018-09-22T07:41:20.446Z,10.05
2018-09-22T07:43:49.204Z,10.13
2018-09-22T07:46:17.941Z,10.00
2018-09-22T07:48:46.918Z,11.50
2018-09-22T07:51:15.748Z,10.75
2018-09-22T07:53:44.475Z,11.10
2018-09-22T07:56:13.193Z,10.72
2018-09-22T07:58:42.324Z,11.00
2018-09-22T08:01:11.059Z,11.20
2018-09-22T08:03:39.841Z,13.35
2018-09-22T08:06:08.911Z,10.82
2018-09-22T08:08:37.890Z,11.45
2018-09-22T08:11:06.948Z,12.40
2018-09-22T08:13:35.746Z,11.70
2018-09-22T08:16:04.701Z,10.43
2018-09-22T08:18:33.580Z,10.53
2018-09-22T08:21:02.341Z,10.23
2018-09-22T08:23:31.150Z,11.60
2018-09-22T08:26:00.149Z,10.23
2018-09-22T08:28:29.035Z,10.80
2018-09-22T08:30:57.777Z,10.70
2018-09-22T08:33:26.468Z,9.78
2018-09-22T08:35:55.246Z,10.28
2018-09-22T08:38:23.914Z,9.15
2018-09-22T08:40:52.736Z,8.55
2018-09-22T08:43:21.474Z,7.03
2018-09-22T08:45:50.328Z,6.62
2018-09-22T08:48:19.076Z,7.92
2018-09-22T08:50:47.718Z,8.25
2018-09-22T08:53:16.456Z,8.30
2018-09-22T08:55:45.139Z,8.88
2018-09-22T08:58:14.011Z,8.45
2018-09-22T09:00:42.923Z,8.48
2018-09-22T09:03:11.643Z,8.48
2018-09-22T09:05:40.380Z,7.97
2018-09-22T09:08:09.296Z,8.05
2018-09-22T09:10:37.971Z,7.97
2018-09-22T09:13:06.993Z,8.08
2018-09-22T09:15:35.718Z,8.68
2018-09-22T09:18:04.457Z,8.70
2018-09-22T09:20:33.219Z,9.15
2018-09-22T09:23:01.888Z,8.53
2018-09-22T09:25:30.697Z,8.25
2018-09-22T09:27:59.498Z,8.38
2018-09-22T09:30:28.197Z,8.10
2018-09-22T09:32:56.910Z,8.48
2018-09-22T09:35:25.731Z,8.63
2018-09-22T09:37:54.431Z,9.23
2018-09-22T09:40:23.266Z,8.43
2018-09-22T09:42:52.077Z,8.63
2018-09-22T09:45:20.783Z,8.68
2018-09-22T09:47:49.585Z,8.33
2018-09-22T09:50:18.267Z,8.10
2018-09-22T09:52:46.909Z,8.03
2018-09-22T09:55:15.648Z,8.33
2018-09-22T09:57:44.414Z,8.50
2018-09-22T10:00:16.113Z,8.53
2018-09-22T10:02:44.821Z,8.90
2018-09-22T10:05:13.519Z,8.50
2018-09-22T10:07:42.248Z,7.40
2018-09-22T10:10:10.988Z,7.37
2018-09-22T10:12:39.873Z,7.70
2018-09-22T10:15:08.664Z,7.03
2018-09-22T10:17:37.335Z,8.20
2018-09-22T10:20:06.353Z,8.60
2018-09-22T10:22:35.126Z,8.45
2018-09-22T10:25:03.883Z,8.03
2018-09-22T10:27:32.603Z,7.83
2018-09-22T10:30:01.522Z,8.15
2018-09-22T10:32:30.605Z,8.08
2018-09-22T10:34:59.308Z,7.45
2018-09-22T10:37:28.002Z,7.62
2018-09-22T10:39:56.779Z,7.45
2018-09-22T10:42:25.580Z,7.33
2018-09-22T10:44:54.448Z,7.50
2018-09-22T10:47:23.166Z,7.10
2018-09-22T10:49:51.941Z,6.92
2018-09-22T10:52:20.674Z,6.72
2018-09-22T10:54:49.427Z,7.92
2018-09-22T10:57:18.137Z,6.62
2018-09-22T10:59:46.999Z,7.05
2018-09-22T11:02:15.795Z,7.42
2018-09-22T11:04:44.658Z,7.10
2018-09-22T11:07:13.570Z,6.97
2018-09-22T11:09:42.367Z,6.75
2018-09-22T11:12:11.219Z,7.10
2018-09-22T11:14:39.992Z,6.20
2018-09-22T11:17:08.804Z,6.97
2018-09-22T11:19:37.591Z,6.97
2018-09-22T11:22:06.401Z,6.70
2018-09-22T11:24:35.282Z,6.40
2018-09-22T11:27:04.285Z,6.10
2018-09-22T11:29:33.272Z,5.17
2018-09-22T11:32:02.090Z,5.40
2018-09-22T11:34:30.867Z,5.90
2018-09-22T11:36:59.662Z,5.55
2018-09-22T11:39:28.462Z,6.20
2018-09-22T11:41:57.233Z,5.42
2018-09-22T11:44:26.117Z,5.90
2018-09-22T11:46:54.969Z,5.78
2018-09-22T11:49:23.703Z,6.42
2018-09-22T11:51:52.495Z,5.60
2018-09-22T11:54:21.342Z,5.15
2018-09-22T11:56:50.268Z,6.28
2018-09-22T11:59:19.475Z,7.75
2018-09-22T12:01:48.281Z,5.53
2018-09-22T12:04:17.136Z,6.67
2018-09-22T12:06:45.922Z,5.67
2018-09-22T12:09:14.715Z,6.08
2018-09-22T12:11:43.510Z,4.95
2018-09-22T12:14:12.327Z,5.20
2018-09-22T12:16:41.172Z,5.85
2018-09-22T12:19:09.947Z,5.00
2018-09-22T12:21:38.838Z,5.55
2018-09-22T12:24:07.988Z,6.00
2018-09-22T12:26:36.831Z,5.35
2018-09-22T12:29:05.528Z,5.00
2018-09-22T12:31:34.405Z,5.12
2018-09-22T12:34:03.122Z,5.45
2018-09-22T12:36:31.813Z,4.83
2018-09-22T12:39:00.660Z,5.62
2018-09-22T12:41:29.432Z,5.42
2018-09-22T12:43:58.230Z,5.40
2018-09-22T12:46:27.084Z,4.83
2018-09-22T12:48:55.794Z,4.85
2018-09-22T12:51:24.489Z,5.40
2018-09-22T12:53:53.246Z,5.53
2018-09-22T12:56:21.982Z,5.12
2018-09-22T12:58:50.720Z,5.72
2018-09-22T13:01:19.559Z,4.80
2018-09-22T13:03:48.440Z,4.35
2018-09-22T13:06:17.370Z,4.85
2018-09-22T13:08:46.231Z,4.65
2018-09-22T13:11:15.047Z,6.30
2018-09-22T13:13:43.876Z,5.15
2018-09-22T13:16:12.707Z,4.60
2018-09-22T13:18:41.494Z,4.67
2018-09-22T13:21:10.238Z,4.40
2018-09-22T13:23:39.021Z,4.40
2018-09-22T13:26:08.002Z,5.17
2018-09-22T13:28:36.857Z,5.45
2018-09-22T13:31:05.779Z,4.92
2018-09-22T13:33:34.603Z,4.97
2018-09-22T13:36:03.496Z,5.10
2018-09-22T13:38:32.287Z,5.22
2018-09-22T13:41:01.024Z,5.45
2018-09-22T13:43:30.106Z,4.90
2018-09-22T13:45:58.926Z,4.53
2018-09-22T13:48:27.635Z,5.15
2018-09-22T13:50:56.723Z,4.87
2018-09-22T13:53:25.664Z,4.75
2018-09-22T13:55:54.848Z,4.90
2018-09-22T13:58:23.800Z,4.65
2018-09-22T14:00:52.979Z,4.50
2018-09-22T14:03:21.709Z,5.05
2018-09-22T14:05:50.490Z,5.35
2018-09-22T14:08:19.321Z,5.30
2018-09-22T14:10:48.041Z,5.33
2018-09-22T14:13:16.789Z,5.40
2018-09-22T14:15:45.469Z,5.55
2018-09-22T14:18:14.473Z,5.65
2018-09-22T14:20:43.214Z,5.65
2018-09-22T14:23:11.942Z,6.05
2018-09-22T14:25:40.731Z,5.50
2018-09-22T14:28:09.577Z,5.62
2018-09-22T14:30:38.270Z,5.35
2018-09-22T14:33:07.076Z,5.85
2018-09-22T14:35:35.768Z,7.05
2018-09-22T14:38:04.548Z,6.20
2018-09-22T14:40:33.522Z,6.83
2018-09-22T14:43:02.417Z,5.78
2018-09-22T14:45:31.223Z,5.45
2018-09-22T14:47:59.995Z,5.25
2018-09-22T14:50:28.762Z,5.15
2018-09-22T14:52:57.553Z,4.97
2018-09-22T14:55:26.430Z,4.92
2018-09-22T14:57:55.199Z,5.25
2018-09-22T15:00:35.936Z,4.97
2018-09-22T15:03:04.770Z,5.50
2018-09-22T15:05:33.450Z,6.47
2018-09-22T15:08:08.425Z,6.10
2018-09-22T15:10:37.344Z,7.20
2018-09-22T15:13:11.865Z,5.85
2018-09-22T15:15:40.749Z,6.12
2018-09-22T15:18:09.676Z,6.30
2018-09-22T15:20:42.193Z,6.72
2018-09-22T15:23:14.862Z,6.10
2018-09-22T15:25:51.789Z,5.50
2018-09-22T15:28:20.526Z,7.95
2018-09-22T15:30:49.260Z,5.85
2018-09-22T15:33:18.007Z,6.50
2018-09-22T15:35:46.782Z,6.37
2018-09-22T15:38:15.531Z,5.90
2018-09-22T15:40:44.449Z,6.00
2018-09-22T15:43:13.278Z,6.50
2018-09-22T15:45:42.059Z,6.03
2018-09-22T15:48:11.021Z,6.00
2018-09-22T15:50:39.713Z,6.30
2018-09-22T15:53:08.419Z,5.97
2018-09-22T15:55:37.228Z,7.13
2018-09-22T15:58:06.219Z,6.57
2018-09-22T16:00:34.992Z,6.83
2018-09-22T16:03:03.834Z,6.67
2018-09-22T16:05:32.669Z,7.80
2018-09-22T16:08:01.463Z,6.93
2018-09-22T16:10:30.293Z,6.20
2018-09-22T16:12:59.052Z,6.30
2018-09-22T16:15:28.918Z,6.53
2018-09-22T16:17:57.654Z,6.73
2018-09-22T16:20:26.529Z,7.20
2018-09-22T16:22:55.399Z,7.07
2018-09-22T16:25:24.242Z,7.60
2018-09-22T16:27:53.135Z,7.67
2018-09-22T16:30:21.967Z,7.83
2018-09-22T16:32:50.774Z,8.17
2018-09-22T16:35:19.496Z,7.60
2018-09-22T16:37:48.166Z,7.30
2018-09-22T16:40:16.968Z,7.00
2018-09-22T16:42:45.670Z,7.80
2018-09-22T16:45:14.336Z,7.53
2018-09-22T16:47:43.040Z,13.27
2018-09-22T16:50:11.840Z,12.43
2018-09-22T16:52:40.567Z,7.90
2018-09-22T16:55:09.375Z,7.43
2018-09-22T16:57:38.099Z,7.17
2018-09-22T17:00:08.415Z,7.10
2018-09-22T17:02:37.209Z,7.33
2018-09-22T17:05:06.008Z,8.23
2018-09-22T17:07:34.829Z,8.23
2018-09-22T17:10:03.662Z,8.00
2018-09-22T17:12:32.450Z,8.70
2018-09-22T17:15:01.136Z,9.63
2018-09-22T17:17:29.953Z,9.23
2018-09-22T17:19:58.712Z,7.57
2018-09-22T17:22:27.572Z,9.93
2018-09-22T17:24:57.081Z,9.83
2018-09-22T17:27:25.918Z,9.43
2018-09-22T17:29:54.788Z,9.63
2018-09-22T17:32:23.468Z,10.20
2018-09-22T17:34:52.153Z,9.60
2018-09-22T17:37:20.898Z,9.63
2018-09-22T17:39:53.532Z,10.30
2018-09-22T17:42:22.258Z,9.90
2018-09-22T17:44:50.931Z,11.47
2018-09-22T17:47:19.662Z,12.07
2018-09-22T17:50:04.891Z,13.07
2018-09-22T17:52:33.786Z,11.17
2018-09-22T17:55:02.551Z,11.60
2018-09-22T17:57:31.285Z,12.73
2018-09-22T18:00:00.066Z,11.90
2018-09-22T18:02:28.812Z,11.90
2018-09-22T18:04:57.590Z,11.23
2018-09-22T18:07:26.253Z,10.90
2018-09-22T18:09:55.046Z,11.87
2018-09-22T18:12:23.755Z,11.47
2018-09-22T18:14:52.559Z,11.30
2018-09-22T18:17:21.268Z,12.13
2018-09-22T18:19:50.157Z,11.57
2018-09-22T18:22:19.087Z,11.27
2018-09-22T18:24:47.838Z,11.13
2018-09-22T18:27:16.581Z,12.53
2018-09-22T18:29:45.253Z,12.70
2018-09-22T18:32:13.957Z,12.03
2018-09-22T18:34:42.614Z,11.47
2018-09-22T18:37:11.373Z,11.87
2018-09-22T18:39:40.097Z,13.10
2018-09-22T18:42:08.837Z,12.77
2018-09-22T18:44:37.491Z,12.50
2018-09-22T18:47:06.257Z,13.57
2018-09-22T18:49:35.000Z,12.63
2018-09-22T18:52:03.729Z,12.73
2018-09-22T18:54:33.066Z,13.67
2018-09-22T18:57:01.754Z,14.53
2018-09-22T18:59:30.423Z,14.27
2018-09-22T19:01:59.111Z,13.50
2018-09-22T19:04:27.923Z,13.60
2018-09-22T19:06:56.600Z,13.70
2018-09-22T19:09:25.362Z,13.23
2018-09-22T19:11:54.186Z,14.33
2018-09-22T19:14:32.739Z,13.57
2018-09-22T19:17:06.710Z,13.53
2018-09-22T19:19:45.383Z,14.40
2018-09-22T19:22:17.640Z,13.63
2018-09-22T19:25:19.235Z,13.13
2018-09-22T19:28:50.981Z,12.87
2018-09-22T19:31:23.604Z,12.53
2018-09-22T19:34:12.448Z,12.07
2018-09-22T19:36:44.510Z,12.87
2018-09-22T19:39:35.360Z,12.70
2018-09-22T19:42:09.131Z,12.23
2018-09-22T19:44:48.679Z,12.40
2018-09-22T19:47:22.870Z,12.23
2018-09-22T19:49:56.255Z,11.80
2018-09-22T19:52:28.743Z,12.33
2018-09-22T19:54:57.421Z,11.80
2018-09-22T19:57:26.189Z,9.93
2018-09-22T19:59:54.924Z,10.23
2018-09-22T20:02:23.752Z,9.97
2018-09-22T20:04:52.800Z,12.03
2018-09-22T20:07:21.690Z,10.67
2018-09-22T20:09:50.426Z,16.53
2018-09-22T20:12:19.072Z,11.47
2018-09-22T20:14:47.829Z,10.83
2018-09-22T20:17:16.635Z,11.90
2018-09-22T20:19:45.336Z,11.43
2018-09-22T20:22:14.104Z,10.83
2018-09-22T20:24:42.788Z,11.33
2018-09-22T20:27:11.544Z,10.83
2018-09-22T20:29:40.372Z,14.90
2018-09-22T20:32:09.143Z,10.93
2018-09-22T20:34:38.068Z,18.20
2018-09-22T20:37:06.736Z,14.43
2018-09-22T20:39:35.443Z,14.40
2018-09-22T20:42:04.796Z,11.13
2018-09-22T20:44:33.566Z,10.80
2018-09-22T20:47:02.280Z,10.43
2018-09-22T20:49:31.046Z,13.37
2018-09-22T20:51:59.756Z,9.67
2018-09-22T20:54:28.605Z,10.57
2018-09-22T20:56:57.287Z,11.03
2018-09-22T20:59:25.984Z,12.07
2018-09-22T21:01:54.998Z,10.23
2018-09-22T21:04:23.820Z,13.43
2018-09-22T21:06:52.584Z,14.20
2018-09-22T21:09:21.265Z,12.00
2018-09-22T21:11:50.086Z,15.30
2018-09-22T21:14:18.829Z,12.67
2018-09-22T21:16:47.512Z,11.97
2018-09-22T21:19:16.307Z,12.00
2018-09-22T21:21:45.120Z,13.37
2018-09-22T21:24:13.999Z,12.33
2018-09-22T21:26:42.746Z,11.77
2018-09-22T21:29:11.527Z,12.50
2018-09-22T21:31:40.605Z,14.07
2018-09-22T21:34:09.348Z,14.10
2018-09-22T21:36:38.742Z,13.03
2018-09-22T21:39:09.239Z,12.33
2018-09-22T21:41:38.123Z,13.10
2018-09-22T21:44:06.904Z,12.70
2018-09-22T21:46:35.577Z,13.40
2018-09-22T21:49:04.548Z,13.87
2018-09-22T21:51:33.189Z,12.93
2018-09-22T21:54:01.873Z,12.43
2018-09-22T21:56:30.797Z,12.47
2018-09-22T21:58:59.649Z,12.47
2018-09-22T22:01:33.320Z,12.57
2018-09-22T22:04:02.032Z,13.10
2018-09-22T22:06:30.746Z,11.83
2018-09-22T22:08:59.459Z,12.43
2018-09-22T22:11:28.225Z,11.90
2018-09-22T22:13:57.013Z,12.93
2018-09-22T22:16:25.835Z,14.17
2018-09-22T22:18:54.514Z,14.00
2018-09-22T22:21:23.985Z,13.03
2018-09-22T22:23:52.733Z,12.83
2018-09-22T22:26:21.460Z,14.37
2018-09-22T22:28:50.290Z,13.43
2018-09-22T22:31:19.102Z,14.30
2018-09-22T22:33:50.153Z,13.70
2018-09-22T22:36:19.254Z,13.63
2018-09-22T22:38:48.098Z,13.77
2018-09-22T22:41:17.014Z,13.33
2018-09-22T22:43:45.781Z,13.67
2018-09-22T22:46:14.833Z,14.07
2018-09-22T22:48:44.177Z,14.13
2018-09-22T22:51:12.911Z,13.00
2018-09-22T22:53:41.881Z,14.07
2018-09-22T22:56:10.575Z,13.80
2018-09-22T22:58:39.456Z,13.17
2018-09-22T23:01:08.645Z,13.00
2018-09-22T23:03:37.387Z,13.03
2018-09-22T23:06:06.168Z,13.90
2018-09-22T23:08:34.972Z,13.83
2018-09-22T23:11:03.612Z,14.20
2018-09-22T23:13:32.364Z,14.10
2018-09-22T23:16:01.011Z,13.57
2018-09-22T23:18:29.886Z,14.70
2018-09-22T23:20:58.723Z,15.63
2018-09-22T23:23:27.439Z,16.33
2018-09-22T23:25:56.975Z,16.00
2018-09-22T23:28:25.679Z,17.53
2018-09-22T23:30:54.325Z,17.60
2018-09-22T23:33:23.028Z,16.23
2018-09-22T23:35:55.196Z,16.33
2018-09-22T23:38:33.584Z,20.13
2018-09-22T23:41:14.035Z,20.07
2018-09-22T23:43:48.211Z,19.87
2018-09-22T23:46:24.184Z,21.07
2018-09-22T23:51:47.763Z,23.37
2018-09-22T23:54:16.572Z,24.03
2018-09-22T23:56:45.377Z,24.57
2018-09-22T23:59:14.099Z,23.90
